createdAt,value
2018-12-02T00:03:02.719Z,100737.51
2018-12-02T00:06:30.594Z,100729.4
2018-12-02T00:09:58.457Z,100725.1
2018-12-02T00:13:26.325Z,100741.78
2018-12-02T00:16:54.183Z,100742.93
2018-12-02T00:20:22.028Z,100740.05
2018-12-02T00:23:50.873Z,100747.45
2018-12-02T00:27:18.747Z,100751.93
2018-12-02T00:30:47.561Z,100744.12
2018-12-02T00:34:15.421Z,100751.65
2018-12-02T00:37:43.272Z,100742.84
2018-12-02T00:41:11.106Z,100737.22
2018-12-02T00:44:38.970Z,100730.81
2018-12-02T00:48:06.838Z,100751.14
2018-12-02T00:51:34.677Z,100745.37
2018-12-02T00:55:03.230Z,100736.56
2018-12-02T00:58:31.089Z,100736.39
2018-12-02T01:01:58.937Z,100733.51
2018-12-02T01:05:26.793Z,100728.06
2018-12-02T01:08:54.651Z,100716.96
2018-12-02T01:12:23.498Z,100701.26
2018-12-02T01:15:51.345Z,100692.13
2018-12-02T01:19:19.206Z,100690.21
2018-12-02T01:22:47.053Z,100692.25
2018-12-02T01:26:14.890Z,100680.07
2018-12-02T01:29:42.739Z,100675.91
2018-12-02T01:33:11.592Z,100671.45
2018-12-02T01:36:39.445Z,100671.75
2018-12-02T01:40:07.296Z,100666.29
2018-12-02T01:43:35.157Z,100661.78
2018-12-02T01:47:02.991Z,100655.39
2018-12-02T01:50:30.853Z,100650.43
2018-12-02T01:53:59.713Z,100645.29
2018-12-02T01:57:27.561Z,100638.25
2018-12-02T02:00:56.416Z,100637.79
2018-12-02T02:04:24.274Z,100627.06
2018-12-02T02:07:52.137Z,100624.5
2018-12-02T02:11:20.961Z,100623.76
2018-12-02T02:14:48.827Z,100618.64
2018-12-02T02:18:16.681Z,100611.1
2018-12-02T02:21:44.526Z,100598.93
2018-12-02T02:25:12.376Z,100591.88
2018-12-02T02:28:40.229Z,100583.54
2018-12-02T02:32:08.065Z,100588.84
2018-12-02T02:35:35.923Z,100581.62
2018-12-02T02:39:03.780Z,100578.26
2018-12-02T02:42:32.615Z,100575.37
2018-12-02T02:46:00.471Z,100568
2018-12-02T02:49:28.324Z,100560.79
2018-12-02T02:52:56.268Z,100556.14
2018-12-02T02:56:24.109Z,100557.26
2018-12-02T02:59:51.960Z,100550.85
2018-12-02T03:03:19.820Z,100537.43
2018-12-02T03:06:47.659Z,100538.67
2018-12-02T03:10:15.517Z,100540.4
2018-12-02T03:13:44.364Z,100533.35
2018-12-02T03:17:12.208Z,100528.18
2018-12-02T03:20:40.062Z,100528.98
2018-12-02T03:24:07.918Z,100513.76
2018-12-02T03:27:35.758Z,100512.96
2018-12-02T03:31:03.614Z,100511.76
2018-12-02T03:34:31.467Z,100503.07
2018-12-02T03:37:59.330Z,100496.63
2018-12-02T03:41:27.172Z,100499.51
2018-12-02T03:44:55.031Z,100491.98
2018-12-02T03:48:22.890Z,100494.03
2018-12-02T03:51:50.735Z,100497.07
2018-12-02T03:55:18.598Z,100488.54
2018-12-02T03:58:46.452Z,100475.87
2018-12-02T04:02:14.289Z,100477.92
2018-12-02T04:05:42.141Z,100468.3
2018-12-02T04:09:09.993Z,100471.03
2018-12-02T04:12:37.901Z,100461.89
2018-12-02T04:16:05.746Z,100457.84
2018-12-02T04:19:33.602Z,100455.08
2018-12-02T04:23:01.457Z,100443.99
2018-12-02T04:26:29.307Z,100433.56
2018-12-02T04:29:57.163Z,100429.68
2018-12-02T04:33:25.024Z,100422.78
2018-12-02T04:36:52.863Z,100410.28
2018-12-02T04:40:20.734Z,100410.71
2018-12-02T04:43:48.588Z,100407.95
2018-12-02T04:47:16.426Z,100402.51
2018-12-02T04:50:44.284Z,100389.17
2018-12-02T04:54:12.141Z,100380.65
2018-12-02T04:57:39.993Z,100380.01
2018-12-02T05:01:09.828Z,100380.9
2018-12-02T05:04:37.687Z,100377.7
2018-12-02T05:08:05.544Z,100377.98
2018-12-02T05:11:33.391Z,100374.89
2018-12-02T05:15:01.261Z,100371.2
2018-12-02T05:18:29.113Z,100367.79
2018-12-02T05:21:56.949Z,100352.4
2018-12-02T05:25:25.792Z,100340.96
2018-12-02T05:28:53.655Z,100336.92
2018-12-02T05:32:21.501Z,100335.79
2018-12-02T05:35:49.357Z,100330.91
2018-12-02T05:39:17.281Z,100326.41
2018-12-02T05:42:45.132Z,100329.42
2018-12-02T05:46:12.992Z,100328.73
2018-12-02T05:49:40.847Z,100320.71
2018-12-02T05:53:08.707Z,100318.57
2018-12-02T05:56:36.549Z,100311.04
2018-12-02T06:00:04.399Z,100310.04
2018-12-02T06:03:32.257Z,100302.74
2018-12-02T06:07:00.099Z,100298.57
2018-12-02T06:10:28.946Z,100290.98
2018-12-02T06:13:56.804Z,100285.48
2018-12-02T06:17:25.648Z,100282.65
2018-12-02T06:20:55.482Z,100277.95
2018-12-02T06:24:24.340Z,100269.93
2018-12-02T06:27:52.202Z,100272.94
2018-12-02T06:31:20.046Z,100265.4
2018-12-02T06:34:47.899Z,100264.28
2018-12-02T06:38:15.764Z,100263.9
2018-12-02T06:41:43.631Z,100270.79
2018-12-02T06:45:11.486Z,100275.68
2018-12-02T06:48:39.367Z,100269.54
2018-12-02T06:52:07.214Z,100274.84
2018-12-02T06:55:35.074Z,100276.59
2018-12-02T06:59:02.930Z,100276.67
2018-12-02T07:02:30.772Z,100272.02
2018-12-02T07:05:59.727Z,100270.4
2018-12-02T07:09:27.599Z,100264.1
2018-12-02T07:12:56.574Z,100267.62
2018-12-02T07:16:24.433Z,100259.45
2018-12-02T07:19:53.281Z,100250.06
2018-12-02T07:23:21.199Z,100246.81
2018-12-02T07:32:51.506Z,100216.04
2018-12-02T07:36:19.360Z,100210.74
2018-12-02T07:39:48.207Z,100199.03
2018-12-02T07:43:16.065Z,100182.14
2018-12-02T07:46:43.906Z,100175.03
2018-12-02T07:50:11.761Z,100164.86
2018-12-02T07:53:39.617Z,100166.74
2018-12-02T07:57:07.455Z,100149.11
2018-12-02T08:00:36.299Z,100140.98
2018-12-02T08:04:04.161Z,100141.39
2018-12-02T08:07:32.000Z,100143.75
2018-12-02T08:10:59.849Z,100144.24
2018-12-02T08:14:27.698Z,100147.29
2018-12-02T08:17:55.542Z,100139.75
2018-12-02T08:21:23.401Z,100127.62
2018-12-02T08:24:51.259Z,100123.28
2018-12-02T08:28:21.087Z,100116.75
2018-12-02T08:31:48.943Z,100124.56
2018-12-02T08:35:17.803Z,100129.12
2018-12-02T08:38:45.666Z,100133.67
2018-12-02T08:42:14.501Z,100133.12
2018-12-02T08:45:42.354Z,100133.5
2018-12-02T08:49:10.205Z,100136.9
2018-12-02T08:52:38.050Z,100135.79
2018-12-02T08:56:05.910Z,100139.02
2018-12-02T08:59:33.769Z,100144.25
2018-12-02T09:03:01.663Z,100148.65
2018-12-02T09:06:29.517Z,100146.93
2018-12-02T09:09:59.571Z,100150.68
2018-12-02T09:13:27.215Z,100152.49
2018-12-02T09:16:55.061Z,100141.89
2018-12-02T09:20:23.513Z,100138.9
2018-12-02T09:23:51.763Z,100122.67
2018-12-02T09:27:19.607Z,100119.37
2018-12-02T09:30:47.465Z,100115.47
2018-12-02T09:34:15.328Z,100113.44
2018-12-02T09:37:43.176Z,100104.87
2018-12-02T09:41:11.037Z,100103.8
2018-12-02T09:44:38.921Z,100095.15
2018-12-02T09:48:06.948Z,100093.89
2018-12-02T09:51:34.787Z,100090.68
2018-12-02T09:55:02.645Z,100081.76
2018-12-02T09:58:30.537Z,100077.1
2018-12-02T10:01:58.369Z,100060.85
2018-12-02T10:05:27.221Z,100064.68
2018-12-02T10:08:55.075Z,100052.52
2018-12-02T10:12:22.929Z,100045.45
2018-12-02T10:15:50.783Z,100045.93
2018-12-02T10:19:18.641Z,100039.66
2018-12-02T10:22:46.499Z,100035.31
2018-12-02T10:26:14.336Z,100028.95
2018-12-02T10:29:42.193Z,100022.5
2018-12-02T10:33:11.051Z,100012.84
2018-12-02T10:36:38.883Z,99993.992
2018-12-02T10:40:06.746Z,99997.914
2018-12-02T10:43:34.654Z,99991.343
2018-12-02T10:47:02.494Z,99991.382
2018-12-02T10:50:30.365Z,99981.046
2018-12-02T10:53:58.220Z,99978.937
2018-12-02T10:57:27.562Z,99969.062
2018-12-02T11:00:56.400Z,99964.289
2018-12-02T11:04:24.256Z,99958.968
2018-12-02T11:07:52.119Z,99943.765
2018-12-02T11:11:19.999Z,99944.312
2018-12-02T11:14:47.869Z,99943.906
2018-12-02T11:18:15.718Z,99940.046
2018-12-02T11:21:43.601Z,99931.406
2018-12-02T11:25:11.468Z,99918.554
2018-12-02T11:28:41.320Z,99916.406
2018-12-02T11:32:09.163Z,99907.671
2018-12-02T11:35:37.053Z,99897.203
2018-12-02T11:39:04.928Z,99896.179
2018-12-02T11:42:32.808Z,99895.617
2018-12-02T11:46:00.675Z,99886.546
2018-12-02T11:49:28.645Z,99893.031
2018-12-02T11:52:56.515Z,99886.671
2018-12-02T11:56:24.408Z,99884.953
2018-12-02T11:59:52.383Z,99885.343
2018-12-02T12:03:20.230Z,99875.484
2018-12-02T12:06:48.089Z,99869.296
2018-12-02T12:10:15.977Z,99874.148
2018-12-02T12:13:43.827Z,99873.828
2018-12-02T12:17:11.693Z,99865.39
2018-12-02T12:20:39.547Z,99861.257
2018-12-02T12:24:07.389Z,99852.531
2018-12-02T12:27:36.251Z,99843.453
2018-12-02T12:31:05.098Z,99842.484
2018-12-02T12:34:32.946Z,99839.007
2018-12-02T12:38:00.850Z,99835.921
2018-12-02T12:41:28.736Z,99829.695
2018-12-02T12:44:56.598Z,99823.39
2018-12-02T12:48:24.455Z,99811.296
2018-12-02T12:51:52.334Z,99800.734
2018-12-02T12:55:21.956Z,99801.914
2018-12-02T12:58:49.804Z,99792.109
2018-12-02T13:02:17.663Z,99793.437
2018-12-02T13:05:45.560Z,99791.976
2018-12-02T13:09:13.409Z,99786.226
2018-12-02T13:12:41.265Z,99778.867
2018-12-02T13:16:09.137Z,99778.312
2018-12-02T13:19:36.995Z,99770.906
2018-12-02T13:23:05.908Z,99771.75
2018-12-02T13:26:34.767Z,99766.406
2018-12-02T13:30:03.712Z,99769.562
2018-12-02T13:33:31.578Z,99774.625
2018-12-02T13:36:59.445Z,99764.39
2018-12-02T13:40:29.306Z,99765.171
2018-12-02T13:43:57.208Z,99763.125
2018-12-02T13:47:25.121Z,99760.554
2018-12-02T13:50:52.988Z,99753.968
2018-12-02T13:54:20.835Z,99747.953
2018-12-02T13:57:48.724Z,99743.953
2018-12-02T14:01:17.642Z,99744.914
2018-12-02T14:04:45.750Z,99740.476
2018-12-02T14:08:17.161Z,99737.132
2018-12-02T14:12:01.692Z,99734.421
2018-12-02T14:15:29.542Z,99731.851
2018-12-02T14:18:57.418Z,99727.656
2018-12-02T14:22:25.284Z,99727.859
2018-12-02T14:25:53.140Z,99729.062
2018-12-02T14:29:21.009Z,99729.507
2018-12-02T14:32:48.884Z,99721.937
2018-12-02T14:36:16.748Z,99717.421
2018-12-02T14:39:44.598Z,99717.39
2018-12-02T14:43:12.484Z,99710.015
2018-12-02T14:46:41.387Z,99709.89
2018-12-02T14:50:09.254Z,99704.734
2018-12-02T14:53:37.152Z,99701.828
2018-12-02T14:57:06.006Z,99697.203
2018-12-02T15:00:34.118Z,99694.046
2018-12-02T15:04:01.969Z,99691.062
2018-12-02T15:07:29.843Z,99688.265
2018-12-02T15:10:57.704Z,99684.828
2018-12-02T15:14:25.562Z,99675.109
2018-12-02T15:17:53.429Z,99669.226
2018-12-02T15:21:21.291Z,99665.921
2018-12-02T15:24:49.150Z,99658.843
2018-12-02T15:28:17.038Z,99656.218
2018-12-02T15:31:44.905Z,99656.859
2018-12-02T15:35:12.764Z,99654.867
2018-12-02T15:38:40.629Z,99654.609
2018-12-02T15:42:08.501Z,99648.218
2018-12-02T15:45:36.551Z,99646.984
2018-12-02T15:49:04.403Z,99642.984
2018-12-02T15:52:32.299Z,99648.132
2018-12-02T15:56:00.170Z,99647.531
2018-12-02T15:59:28.027Z,99643.718
2018-12-02T16:02:55.892Z,99644.562
2018-12-02T16:06:23.778Z,99643.078
2018-12-02T16:09:51.645Z,99637.453
2018-12-02T16:13:19.513Z,99629.89
2018-12-02T16:16:47.402Z,99634.046
2018-12-02T16:20:17.261Z,99625.164
2018-12-02T16:23:45.143Z,99623.718
2018-12-02T16:27:14.013Z,99623.328
2018-12-02T16:30:41.876Z,99616.781
2018-12-02T16:34:10.767Z,99618.187
2018-12-02T16:37:38.701Z,99617.39
2018-12-02T16:41:07.709Z,99613.89
2018-12-02T16:44:35.597Z,99614.968
2018-12-02T16:48:03.543Z,99612.25
2018-12-02T16:51:31.493Z,99609.968
2018-12-02T16:54:59.398Z,99608.273
2018-12-02T16:58:27.267Z,99606.281
2018-12-02T17:01:56.339Z,99603.453
2018-12-02T17:05:26.195Z,99606.671
2018-12-02T17:08:54.068Z,99605.14
2018-12-02T17:12:22.799Z,99602.546
2018-12-02T17:15:50.635Z,99601.671
2018-12-02T17:19:18.508Z,99601.289
2018-12-02T17:22:47.362Z,99598.062
2018-12-02T17:26:15.243Z,99597.671
2018-12-02T17:29:43.103Z,99594.929
2018-12-02T17:33:12.101Z,99593.593
2018-12-02T17:36:39.967Z,99591.5
2018-12-02T17:40:07.855Z,99591.398
2018-12-02T17:43:35.719Z,99587.187
2018-12-02T17:47:03.716Z,99586.187
2018-12-02T17:50:31.582Z,99579.437
2018-12-02T17:53:59.514Z,99578.937
2018-12-02T17:57:27.433Z,99577.429
2018-12-02T18:00:55.737Z,99572.929
2018-12-02T18:04:23.624Z,99579.414
2018-12-02T18:07:51.523Z,99578.546
2018-12-02T18:11:19.380Z,99574.031
2018-12-02T18:14:47.227Z,99571.421
2018-12-02T18:18:15.085Z,99567.007
2018-12-02T18:21:42.953Z,99571.109
2018-12-02T18:25:10.809Z,99569.015
2018-12-02T18:28:38.690Z,99568.156
2018-12-02T18:32:06.914Z,99561.062
2018-12-02T18:35:34.767Z,99562.867
2018-12-02T18:39:02.662Z,99569.218
2018-12-02T18:42:30.525Z,99566.921
2018-12-02T18:45:58.392Z,99567.875
2018-12-02T18:49:26.267Z,99564.109
2018-12-02T18:52:54.142Z,99569.062
2018-12-02T18:56:22.005Z,99567.062
2018-12-02T18:59:50.895Z,99567.164
2018-12-02T19:03:18.774Z,99567.687
2018-12-02T19:06:46.623Z,99560.71
2018-12-02T19:10:14.495Z,99567.421
2018-12-02T19:13:44.364Z,99574.375
2018-12-02T19:17:12.366Z,99567.593
2018-12-02T19:20:40.282Z,99561.968
2018-12-02T19:24:08.248Z,99558.39
2018-12-02T19:27:37.676Z,99554.156
2018-12-02T19:31:05.878Z,99559.367
2018-12-02T19:34:33.885Z,99552.859
2018-12-02T19:38:01.998Z,99555.406
2018-12-02T19:41:30.095Z,99554.593
2018-12-02T19:45:05.673Z,99556.906
2018-12-02T19:48:35.759Z,99559.406
2018-12-02T19:52:03.726Z,99553.921
2018-12-02T19:55:31.780Z,99558.585
2018-12-02T19:58:59.831Z,99565.32
2018-12-02T20:02:27.686Z,99567.882
2018-12-02T20:05:55.634Z,99573.671
2018-12-02T20:09:24.682Z,99575.976
2018-12-02T20:12:52.581Z,99576.062
2018-12-02T20:16:20.494Z,99573.781
2018-12-02T20:19:49.431Z,99572.328
2018-12-02T20:23:17.337Z,99577.609
2018-12-02T20:26:45.319Z,99573.546
2018-12-02T20:30:13.200Z,99570.828
2018-12-02T20:33:41.059Z,99568.671
2018-12-02T20:37:08.909Z,99568.914
2018-12-02T20:40:36.898Z,99572.656
2018-12-02T20:44:04.845Z,99572.039
2018-12-02T20:47:32.703Z,99569.765
2018-12-02T20:51:00.567Z,99573.593
2018-12-02T20:54:28.432Z,99574.062
2018-12-02T20:57:57.248Z,99576.625
2018-12-02T21:01:25.434Z,99577.695
2018-12-02T21:04:53.441Z,99577.25
2018-12-02T21:08:21.401Z,99579.5
2018-12-02T21:11:49.245Z,99581.718
2018-12-02T21:15:17.100Z,99587.203
2018-12-02T21:18:44.962Z,99590.312
2018-12-02T21:22:12.802Z,99591.726
2018-12-02T21:25:40.681Z,99590.937
2018-12-02T21:29:08.543Z,99595.687
2018-12-02T21:32:36.397Z,99600.406
2018-12-02T21:36:04.251Z,99599.671
2018-12-02T21:39:32.114Z,99600.546
2018-12-02T21:42:59.960Z,99605.617
2018-12-02T21:46:27.853Z,99609.359
2018-12-02T21:49:56.703Z,99614.234
2018-12-02T21:53:24.560Z,99623.187
2018-12-02T21:56:52.418Z,99623.703
2018-12-02T22:00:20.280Z,99621.406
2018-12-02T22:03:48.137Z,99617.421
2018-12-02T22:07:15.981Z,99609.656
2018-12-02T22:10:43.841Z,99613.718
2018-12-02T22:14:11.704Z,99616.468
2018-12-02T22:17:39.665Z,99622.421
2018-12-02T22:21:07.520Z,99620.015
2018-12-02T22:24:35.380Z,99625.57
2018-12-02T22:28:03.219Z,99622.75
2018-12-02T22:31:31.077Z,99628.812
2018-12-02T22:34:58.930Z,99620.039
2018-12-02T22:38:26.773Z,99633.359
2018-12-02T22:41:54.629Z,99628.273
2018-12-02T22:45:22.486Z,99631.109
2018-12-02T22:48:50.343Z,99626.062
2018-12-02T22:52:18.188Z,99630.671
2018-12-02T22:55:46.048Z,99632.414
2018-12-02T22:59:13.910Z,99627.671
2018-12-02T23:02:41.752Z,99621.226
2018-12-02T23:06:09.612Z,99625
2018-12-02T23:09:37.470Z,99620.695
2018-12-02T23:13:05.316Z,99616.781
2018-12-02T23:16:33.179Z,99613.046
2018-12-02T23:20:01.034Z,99615.64
2018-12-02T23:23:28.898Z,99618.523
2018-12-02T23:26:56.740Z,99613.21
2018-12-02T23:30:24.599Z,99616.75
2018-12-02T23:33:52.453Z,99621.578
2018-12-02T23:37:21.292Z,99623.148
2018-12-02T23:40:49.160Z,99627
2018-12-02T23:44:17.008Z,99625.031
2018-12-02T23:47:44.863Z,99624.546
2018-12-02T23:51:12.708Z,99633.164
2018-12-02T23:54:40.563Z,99626.273
2018-12-02T23:58:08.420Z,99628.335
